Arlington Heights, Illinois
Current Conditions -  °F | °C
As of 11:52 AM on Monday 26 Jan 2015 (Local Time) from KPWK Reporting Station
Overcast Overcast  
Wind Chill: 21°   Ceiling: 6500
Heat Index: 26°   Visibility: 10mi
Dew Point: 16°   Wind: 5mph
Humidity: 66%   Direction: 170°S
Pressure: 29.91"   Gusts: NA
Location:  42.14°N, 87.99°W
Report Text: KPWK 261752Z 17004KT 10SM OVC065 M03/M09 A2991 RMK AO2 SLP138 T10331089 11033 21094 58020
Loading
Personal Weather Stations






























Interactive Weather Map New forecast layout! Learn more

10-Day Weather Forecast

Advertisements
Track Severe Weather on mobile